Time;durP1;ratioP1;P1;durP2;ratioP2;P2;SDS_P1;SDS_P2;PMS_P1;PMS_P2;Temp;Humidity;BMP_temperature;BMP_pressure;BME280_temperature;BME280_humidity;BME280_pressure;Samples;Min_cycle;Max_cycle;Signal;HPM_P1;HPM_P2
2023/08/24 00:00:26;;;;;;;6.35;2.08;;;17.20;75.70;;;;;;5049787;28;20037;-77
2023/08/24 00:02:54;;;;;;;8.77;3.25;;;17.40;75.80;;;;;;5052916;28;20051;-77
2023/08/24 00:05:21;;;;;;;4.47;1.55;;;17.60;75.20;;;;;;5052759;28;20062;-76
2023/08/24 00:07:49;;;;;;;6.43;1.50;;;17.60;75.10;;;;;;5052797;28;20029;-80
2023/08/24 00:10:16;;;;;;;8.85;1.90;;;17.60;74.40;;;;;;5052206;28;20029;-76
2023/08/24 00:12:43;;;;;;;5.97;2.35;;;17.70;73.90;;;;;;5052595;28;20013;-81
2023/08/24 00:15:11;;;;;;;7.38;1.77;;;18.00;71.10;;;;;;5052597;28;20078;-76
2023/08/24 00:17:39;;;;;;;7.45;1.70;;;18.20;70.10;;;;;;5053120;28;20052;-79
2023/08/24 00:20:10;;;;;;;5.70;1.70;;;18.40;68.80;;;;;;5054198;28;20057;-77
2023/08/24 00:22:39;;;;;;;5.90;1.50;;;18.60;68.60;;;;;;5054441;28;20083;-78
2023/08/24 00:25:08;;;;;;;5.93;1.75;;;18.80;68.90;;;;;;5054476;28;20021;-78
2023/08/24 00:27:37;;;;;;;7.10;1.50;;;18.80;68.40;;;;;;5054538;28;20471;-79
2023/08/24 00:30:06;;;;;;;6.47;1.60;;;18.90;68.70;;;;;;5054509;28;20468;-75
2023/08/24 00:32:34;;;;;;;9.00;2.08;;;19.00;66.60;;;;;;5054295;28;20029;-75
2023/08/24 00:35:04;;;;;;;4.57;1.52;;;19.30;66.40;;;;;;5054311;28;20040;-79
2023/08/24 00:37:31;;;;;;;8.30;1.55;;;19.20;66.70;;;;;;5054252;28;20479;-78
2023/08/24 00:40:10;;;;;;;5.43;1.42;;;19.30;66.20;;;;;;5054064;28;20029;-78
2023/08/24 00:42:41;;;;;;;4.15;1.40;;;19.10;65.60;;;;;;5053875;28;20082;-77
2023/08/24 00:45:10;;;;;;;4.43;1.33;;;19.10;66.20;;;;;;5054015;28;20093;-76
2023/08/24 00:47:48;;;;;;;10.10;1.55;;;19.00;66.50;;;;;;5054004;28;20051;-76
2023/08/24 00:50:18;;;;;;;6.25;1.50;;;19.10;67.10;;;;;;5053783;28;20063;-76
2023/08/24 00:52:47;;;;;;;7.07;2.83;;;19.00;67.30;;;;;;5053878;28;20497;-78
2023/08/24 00:55:14;;;;;;;5.05;1.70;;;18.90;67.00;;;;;;5053563;28;20032;-80
2023/08/24 00:57:42;;;;;;;2.67;1.20;;;18.90;66.80;;;;;;5053703;28;20383;-77
2023/08/24 01:00:10;;;;;;;6.32;1.48;;;18.80;65.10;;;;;;5053665;28;20025;-78
2023/08/24 01:02:39;;;;;;;6.30;1.48;;;18.70;65.70;;;;;;5053700;28;20475;-77
2023/08/24 01:05:07;;;;;;;8.43;1.50;;;18.70;65.50;;;;;;5053806;28;20021;-77
2023/08/24 01:07:37;;;;;;;3.65;1.25;;;18.60;65.30;;;;;;5053610;28;20471;-77
2023/08/24 01:10:06;;;;;;;5.95;1.50;;;18.50;65.20;;;;;;5053291;28;20031;-77
2023/08/24 01:12:43;;;;;;;4.93;1.20;;;18.50;65.00;;;;;;5053499;28;20049;-79
2023/08/24 01:15:30;;;;;;;7.32;1.30;;;18.40;65.30;;;;;;5053559;28;20032;-76
2023/08/24 01:18:05;;;;;;;8.38;1.77;;;18.30;64.80;;;;;;5053390;28;20021;-77
2023/08/24 01:20:34;;;;;;;2.55;0.98;;;18.40;64.20;;;;;;5053300;28;20080;-76
2023/08/24 01:23:28;;;;;;;4.38;1.25;;;18.40;64.20;;;;;;5051151;28;20043;-76
2023/08/24 01:26:19;;;;;;;8.18;1.60;;;18.50;64.60;;;;;;5053163;28;20070;-79
2023/08/24 01:28:47;;;;;;;5.32;1.42;;;18.80;64.60;;;;;;5053247;28;20024;-76
2023/08/24 01:31:16;;;;;;;5.95;1.40;;;18.90;63.60;;;;;;5053381;28;20029;-79
2023/08/24 01:33:44;;;;;;;6.90;1.55;;;19.10;63.40;;;;;;5053204;28;20028;-82
2023/08/24 01:36:19;;;;;;;4.20;1.20;;;19.20;61.20;;;;;;5052987;28;20014;-80
2023/08/24 01:39:19;;;;;;;1.83;1.13;;;19.40;59.90;;;;;;5053012;28;20489;-79
2023/08/24 01:41:53;;;;;;;4.90;1.20;;;19.40;60.60;;;;;;5048058;28;20028;-84
2023/08/24 01:44:22;;;;;;;4.22;1.30;;;19.30;61.20;;;;;;5050853;28;20039;-79
2023/08/24 01:46:52;;;;;;;3.38;1.10;;;19.30;61.10;;;;;;5054649;28;20368;-80
2023/08/24 01:49:20;;;;;;;3.33;1.00;;;19.20;60.70;;;;;;5060106;28;20036;-82
2023/08/24 01:51:47;;;;;;;4.22;1.40;;;19.10;61.00;;;;;;5063915;28;20394;-83
2023/08/24 01:54:15;;;;;;;6.15;1.48;;;19.00;61.00;;;;;;5061529;28;20036;-80
2023/08/24 01:56:42;;;;;;;6.43;2.67;;;18.90;61.00;;;;;;5063058;28;20020;-81
2023/08/24 01:59:09;;;;;;;5.57;1.52;;;18.80;61.30;;;;;;5064626;28;20466;-83
2023/08/24 02:01:37;;;;;;;5.82;1.30;;;18.80;61.20;;;;;;5062604;28;20052;-84
2023/08/24 02:04:05;;;;;;;7.07;1.38;;;18.80;61.40;;;;;;5051335;28;20513;-80
2023/08/24 02:06:32;;;;;;;1.77;1.00;;;18.70;61.30;;;;;;5050637;28;20021;-82
2023/08/24 02:09:00;;;;;;;3.17;1.02;;;18.70;61.20;;;;;;5049414;28;20025;-83
2023/08/24 02:11:27;;;;;;;5.55;1.13;;;18.70;61.10;;;;;;5066054;28;20033;-83
2023/08/24 02:13:55;;;;;;;3.30;1.20;;;18.70;61.20;;;;;;5048502;28;20476;-80
2023/08/24 02:16:22;;;;;;;3.03;0.90;;;18.70;61.20;;;;;;5060302;28;20664;-79
2023/08/24 02:18:49;;;;;;;4.35;1.25;;;18.60;61.20;;;;;;5054825;28;20544;-80
2023/08/24 02:21:17;;;;;;;4.07;1.00;;;18.60;61.50;;;;;;5061902;28;20080;-80
2023/08/24 02:23:44;;;;;;;2.67;1.20;;;18.60;61.50;;;;;;5052600;28;20028;-83
2023/08/24 02:26:12;;;;;;;3.42;1.00;;;18.60;61.30;;;;;;5052243;28;20025;-81
2023/08/24 02:28:39;;;;;;;6.13;1.45;;;18.60;60.90;;;;;;5064533;28;20021;-81
2023/08/24 02:31:07;;;;;;;3.03;1.10;;;18.50;60.50;;;;;;5055008;28;20029;-81
2023/08/24 02:33:35;;;;;;;1.60;1.00;;;18.50;60.50;;;;;;5061307;28;20055;-81
2023/08/24 02:36:02;;;;;;;6.07;1.17;;;18.50;60.80;;;;;;5064026;28;20107;-83
2023/08/24 02:38:29;;;;;;;4.65;1.48;;;18.50;61.00;;;;;;5064123;28;20033;-81
2023/08/24 02:41:04;;;;;;;1.65;0.95;;;18.50;60.70;;;;;;5071556;28;20020;-81
2023/08/24 02:43:32;;;;;;;4.18;1.15;;;18.50;61.10;;;;;;5047123;28;20028;-80
2023/08/24 02:46:04;;;;;;;8.20;1.60;;;18.40;61.20;;;;;;5068051;28;20029;-80
2023/08/24 02:48:32;;;;;;;3.33;1.40;;;18.50;61.10;;;;;;5067867;28;20020;-81
2023/08/24 02:51:01;;;;;;;4.63;1.10;;;18.40;60.90;;;;;;5059847;28;20025;-78
2023/08/24 02:53:28;;;;;;;3.15;1.08;;;18.40;60.80;;;;;;5065045;28;20094;-81
2023/08/24 02:55:56;;;;;;;2.78;0.93;;;18.40;60.90;;;;;;5062811;28;20091;-80
2023/08/24 02:58:24;;;;;;;3.15;0.90;;;18.40;61.10;;;;;;5064734;28;20025;-78
2023/08/24 03:00:51;;;;;;;4.88;1.30;;;18.30;61.20;;;;;;5070572;28;20441;-79
2023/08/24 03:03:19;;;;;;;5.88;1.13;;;18.40;61.50;;;;;;5057345;28;20407;-79
2023/08/24 03:06:02;;;;;;;3.35;1.10;;;18.40;61.30;;;;;;5069722;28;20020;-80
2023/08/24 03:08:31;;;;;;;3.75;1.00;;;18.30;61.50;;;;;;5055371;28;20107;-78
2023/08/24 03:10:59;;;;;;;5.03;1.45;;;18.30;61.60;;;;;;5063159;28;20025;-78
2023/08/24 03:13:27;;;;;;;4.25;1.27;;;18.40;61.70;;;;;;5064960;28;20483;-82
2023/08/24 03:15:55;;;;;;;4.63;1.15;;;18.30;61.50;;;;;;5062643;28;20155;-77
2023/08/24 03:18:23;;;;;;;3.65;1.17;;;18.30;61.00;;;;;;5064481;28;20075;-78
2023/08/24 03:20:53;;;;;;;4.03;0.82;;;18.20;60.50;;;;;;5069465;28;20556;-80
2023/08/24 03:23:21;;;;;;;1.92;0.68;;;18.30;60.80;;;;;;5056648;28;20503;-82
2023/08/24 03:25:49;;;;;;;4.55;0.90;;;18.20;60.90;;;;;;5069193;28;20421;-80
2023/08/24 03:28:16;;;;;;;5.35;0.90;;;18.20;61.10;;;;;;5065109;28;20032;-80
2023/08/24 03:30:55;;;;;;;4.25;1.08;;;18.20;60.60;;;;;;5061284;28;20490;-77
2023/08/24 03:33:23;;;;;;;4.45;1.02;;;18.20;60.90;;;;;;5064260;28;20025;-77
2023/08/24 03:35:50;;;;;;;1.98;0.82;;;18.30;60.80;;;;;;5061567;28;20062;-78
2023/08/24 03:38:17;;;;;;;4.07;1.00;;;18.30;61.00;;;;;;5064795;28;20356;-80
2023/08/24 03:40:45;;;;;;;4.18;1.40;;;18.40;60.40;;;;;;5068526;28;20055;-77
2023/08/24 03:43:12;;;;;;;4.07;1.00;;;18.50;60.00;;;;;;5056451;28;20048;-77
2023/08/24 03:45:42;;;;;;;5.53;1.17;;;18.60;59.50;;;;;;5069409;28;20025;-78
2023/08/24 03:48:09;;;;;;;1.80;0.95;;;18.50;58.50;;;;;;5063777;28;20437;-78
2023/08/24 03:50:37;;;;;;;6.05;1.05;;;18.50;59.20;;;;;;5061958;28;20029;-77
2023/08/24 03:53:04;;;;;;;2.10;0.90;;;18.50;58.70;;;;;;5064090;28;20511;-80
2023/08/24 03:55:33;;;;;;;4.82;0.88;;;18.40;58.40;;;;;;5071209;28;20048;-79
2023/08/24 03:58:00;;;;;;;11.52;1.67;;;18.50;58.60;;;;;;5062691;28;20043;-83
2023/08/24 04:00:27;;;;;;;3.10;1.20;;;18.50;58.70;;;;;;5063336;28;20025;-83
2023/08/24 04:02:55;;;;;;;7.25;1.55;;;18.50;59.10;;;;;;5053525;28;20829;-83
2023/08/24 04:05:22;;;;;;;2.95;0.93;;;18.50;59.00;;;;;;5077493;28;20084;-83
2023/08/24 04:07:49;;;;;;;5.85;1.25;;;18.50;59.20;;;;;;5076388;28;20009;-83
2023/08/24 04:10:17;;;;;;;2.00;0.93;;;18.50;57.70;;;;;;5065171;28;20040;-80
2023/08/24 04:12:44;;;;;;;4.20;1.05;;;18.50;57.90;;;;;;5063167;28;20021;-81
2023/08/24 04:15:11;;;;;;;3.22;1.10;;;18.60;58.50;;;;;;5071140;28;20021;-80
2023/08/24 04:17:39;;;;;;;2.17;1.08;;;18.60;58.70;;;;;;5068733;28;20013;-82
2023/08/24 04:20:07;;;;;;;1.55;0.70;;;18.70;58.20;;;;;;5073638;28;20048;-80
2023/08/24 04:22:35;;;;;;;2.75;1.02;;;18.70;57.90;;;;;;5074321;28;20037;-84
2023/08/24 04:25:02;;;;;;;2.92;1.00;;;18.70;58.50;;;;;;5066178;28;20048;-82
2023/08/24 04:27:30;;;;;;;3.83;1.05;;;18.70;58.20;;;;;;5066662;28;20021;-83
2023/08/24 04:29:57;;;;;;;3.13;1.00;;;18.80;57.90;;;;;;5068750;28;20013;-81
2023/08/24 04:32:25;;;;;;;1.50;0.90;;;18.80;57.80;;;;;;5063429;28;20025;-82
2023/08/24 04:34:52;;;;;;;5.82;1.15;;;18.80;58.10;;;;;;5065900;28;20031;-83
2023/08/24 04:37:23;;;;;;;2.92;0.90;;;18.90;57.80;;;;;;5060813;28;20029;-84
2023/08/24 04:39:53;;;;;;;6.28;1.25;;;19.00;57.30;;;;;;5054440;28;20045;-81
2023/08/24 04:42:21;;;;;;;3.00;1.17;;;19.10;56.80;;;;;;5057657;28;20024;-77
2023/08/24 04:44:48;;;;;;;4.18;0.95;;;19.10;56.70;;;;;;5058025;28;20515;-77
2023/08/24 04:47:15;;;;;;;2.75;1.10;;;19.20;56.60;;;;;;5077019;28;20108;-80
2023/08/24 04:49:43;;;;;;;1.75;1.02;;;19.20;56.60;;;;;;5063760;28;20028;-79
2023/08/24 04:52:17;;;;;;;2.88;1.00;;;19.20;56.60;;;;;;5064737;28;20506;-77
2023/08/24 04:54:44;;;;;;;3.90;0.75;;;19.20;55.40;;;;;;5054924;28;20041;-76
2023/08/24 04:57:13;;;;;;;3.28;0.90;;;19.10;55.30;;;;;;5058778;28;20089;-78
2023/08/24 04:59:40;;;;;;;3.05;0.90;;;19.10;55.80;;;;;;5052951;28;20092;-80
2023/08/24 05:02:07;;;;;;;2.53;0.90;;;19.10;56.20;;;;;;5053176;28;20024;-76
2023/08/24 05:04:39;;;;;;;2.35;1.00;;;19.10;56.30;;;;;;5051408;28;20506;-82
2023/08/24 05:07:07;;;;;;;2.78;1.05;;;19.10;56.00;;;;;;5054273;28;20140;-81
2023/08/24 05:09:35;;;;;;;5.70;1.00;;;19.00;55.20;;;;;;5069588;28;20061;-81
2023/08/24 05:12:02;;;;;;;1.35;0.95;;;18.90;54.90;;;;;;5054385;28;20024;-79
2023/08/24 05:14:30;;;;;;;3.05;1.00;;;18.90;55.30;;;;;;5052320;28;20544;-78
2023/08/24 05:16:57;;;;;;;1.92;0.90;;;18.90;56.00;;;;;;5069177;28;20115;-83
2023/08/24 05:19:34;;;;;;;4.43;1.25;;;18.90;56.50;;;;;;5066935;27;20487;-78
2023/08/24 05:22:01;;;;;;;2.70;1.00;;;18.80;56.70;;;;;;5070041;28;20574;-79
2023/08/24 05:24:29;;;;;;;1.95;1.00;;;18.80;56.50;;;;;;5068458;28;20028;-79
2023/08/24 05:26:57;;;;;;;2.25;1.00;;;18.70;55.90;;;;;;5066732;28;20020;-81
2023/08/24 05:29:24;;;;;;;2.33;1.05;;;18.80;56.30;;;;;;5086919;28;20082;-77
2023/08/24 05:31:52;;;;;;;3.60;1.45;;;18.70;56.60;;;;;;5068845;28;20479;-79
2023/08/24 05:34:19;;;;;;;3.58;1.13;;;18.70;56.80;;;;;;5067983;28;20055;-81
2023/08/24 05:36:46;;;;;;;2.03;1.15;;;18.70;57.10;;;;;;5083677;28;20364;-76
2023/08/24 05:39:17;;;;;;;4.18;1.00;;;18.70;57.00;;;;;;5071705;28;20056;-81
2023/08/24 05:41:44;;;;;;;1.77;0.90;;;18.70;56.60;;;;;;5069814;28;20036;-83
2023/08/24 05:44:11;;;;;;;1.80;1.10;;;18.70;56.80;;;;;;5068494;28;20012;-76
2023/08/24 05:46:39;;;;;;;4.88;0.90;;;18.70;56.50;;;;;;5083112;28;20107;-83
2023/08/24 05:49:07;;;;;;;1.80;0.85;;;18.70;56.80;;;;;;5073093;28;20021;-82
2023/08/24 05:51:37;;;;;;;3.05;1.08;;;18.70;56.80;;;;;;5085621;28;20013;-77
2023/08/24 05:54:06;;;;;;;3.83;1.00;;;18.70;56.50;;;;;;5067528;28;20024;-82
2023/08/24 05:56:33;;;;;;;1.80;0.98;;;18.60;56.20;;;;;;5069579;28;20033;-78
2023/08/24 05:59:01;;;;;;;2.13;0.80;;;18.60;56.50;;;;;;5069342;28;20551;-77
2023/08/24 06:01:30;;;;;;;2.65;1.30;;;18.60;56.80;;;;;;5069389;28;20075;-82
2023/08/24 06:03:58;;;;;;;2.83;1.13;;;18.60;57.20;;;;;;5069513;28;20055;-81
2023/08/24 06:06:29;;;;;;;2.45;1.20;;;18.40;57.10;;;;;;5069353;28;20016;-83
2023/08/24 06:09:04;;;;;;;3.50;1.10;;;18.40;56.10;;;;;;5068182;28;20028;-82
2023/08/24 06:11:34;;;;;;;2.75;0.93;;;18.50;56.30;;;;;;5070043;28;20041;-83
2023/08/24 06:14:02;;;;;;;5.00;1.10;;;18.40;56.70;;;;;;5070256;28;20464;-83
2023/08/24 06:16:31;;;;;;;3.20;1.00;;;18.30;56.70;;;;;;5068296;28;20040;-83
2023/08/24 06:18:58;;;;;;;2.25;0.90;;;18.30;56.70;;;;;;5068555;28;20052;-81
2023/08/24 06:21:25;;;;;;;1.83;1.10;;;18.30;56.70;;;;;;5068878;28;20028;-83
2023/08/24 06:23:53;;;;;;;2.20;1.20;;;18.30;56.70;;;;;;5064072;28;20371;-83
2023/08/24 06:26:20;;;;;;;2.80;1.08;;;18.20;56.90;;;;;;5068463;28;20503;-82
2023/08/24 06:28:48;;;;;;;2.30;0.98;;;18.20;57.40;;;;;;5059628;28;20100;-82
2023/08/24 06:31:16;;;;;;;1.20;0.85;;;18.20;57.20;;;;;;5055335;28;20092;-83
2023/08/24 06:33:43;;;;;;;1.10;1.00;;;18.20;57.30;;;;;;5055569;28;20040;-86
2023/08/24 06:36:12;;;;;;;3.70;1.02;;;18.10;57.40;;;;;;5055016;28;20025;-81
2023/08/24 06:38:39;;;;;;;1.95;1.23;;;18.10;58.40;;;;;;5055351;28;20029;-82
2023/08/24 06:41:11;;;;;;;2.65;1.00;;;18.10;58.20;;;;;;5052697;28;20017;-83
2023/08/24 06:43:39;;;;;;;0.80;0.80;;;18.00;57.80;;;;;;5055242;28;20025;-83
2023/08/24 06:46:10;;;;;;;3.22;1.10;;;18.00;58.40;;;;;;5052388;28;20017;-83
2023/08/24 06:48:38;;;;;;;1.98;0.90;;;18.00;58.10;;;;;;5055116;28;20040;-83
2023/08/24 06:51:05;;;;;;;1.83;1.00;;;17.90;58.70;;;;;;5051957;28;20020;-80
2023/08/24 06:53:32;;;;;;;2.50;1.10;;;17.80;58.20;;;;;;5055162;28;20483;-82
2023/08/24 06:56:11;;;;;;;2.88;1.02;;;17.80;58.30;;;;;;5049749;28;20059;-81
2023/08/24 06:58:38;;;;;;;1.42;1.00;;;17.80;58.40;;;;;;5059648;28;20029;-79
2023/08/24 07:01:11;;;;;;;3.53;1.30;;;17.70;58.70;;;;;;5056543;28;20079;-82
2023/08/24 07:03:42;;;;;;;3.20;1.05;;;17.70;58.40;;;;;;5053070;28;20533;-76
2023/08/24 07:06:12;;;;;;;1.40;1.00;;;17.60;58.20;;;;;;5057090;28;20428;-80
2023/08/24 07:08:39;;;;;;;3.13;0.90;;;17.60;58.40;;;;;;5066743;28;20091;-80
2023/08/24 07:11:07;;;;;;;2.00;1.10;;;17.50;59.00;;;;;;5058068;28;20017;-79
2023/08/24 07:13:34;;;;;;;3.35;1.00;;;17.50;58.80;;;;;;5057050;28;20028;-76
2023/08/24 07:16:05;;;;;;;2.13;0.90;;;17.50;58.80;;;;;;5056627;28;20024;-78
2023/08/24 07:18:32;;;;;;;3.85;1.02;;;17.40;58.90;;;;;;5057901;28;20558;-83
2023/08/24 07:20:59;;;;;;;4.80;1.08;;;17.30;58.90;;;;;;5058002;28;20024;-82
2023/08/24 07:23:27;;;;;;;1.75;1.13;;;17.30;59.40;;;;;;5056388;28;20388;-77
2023/08/24 07:25:54;;;;;;;3.17;1.10;;;17.30;59.40;;;;;;5056975;28;20025;-81
2023/08/24 07:28:21;;;;;;;2.38;1.08;;;17.20;59.60;;;;;;5058557;28;20064;-77
2023/08/24 07:30:49;;;;;;;3.28;1.10;;;17.20;60.40;;;;;;5058472;28;20032;-78
2023/08/24 07:33:17;;;;;;;5.10;1.25;;;17.20;59.70;;;;;;5055566;28;20078;-77
2023/08/24 07:35:46;;;;;;;3.45;1.20;;;17.10;60.10;;;;;;5059818;28;20021;-78
2023/08/24 07:38:13;;;;;;;3.30;1.10;;;17.10;60.50;;;;;;5057444;28;20028;-80
2023/08/24 07:40:41;;;;;;;1.80;0.95;;;17.00;61.30;;;;;;5057543;28;20484;-80
2023/08/24 07:43:08;;;;;;;3.30;1.30;;;17.00;61.20;;;;;;5054498;28;20035;-79
2023/08/24 07:45:35;;;;;;;3.72;1.27;;;17.00;61.60;;;;;;5059240;28;20024;-80
2023/08/24 07:48:03;;;;;;;3.58;1.05;;;16.90;61.40;;;;;;5059799;28;21180;-80
2023/08/24 07:50:30;;;;;;;4.38;1.35;;;16.80;61.70;;;;;;5059133;28;20472;-81
2023/08/24 07:52:58;;;;;;;4.55;1.65;;;16.80;62.30;;;;;;5064780;28;20029;-77
2023/08/24 07:55:26;;;;;;;3.50;1.20;;;16.80;62.30;;;;;;5061427;28;20028;-83
2023/08/24 07:57:53;;;;;;;4.90;1.50;;;16.70;62.40;;;;;;5051632;28;20033;-80
2023/08/24 08:00:24;;;;;;;4.78;1.33;;;16.70;62.30;;;;;;5063139;28;20029;-80
2023/08/24 08:02:51;;;;;;;3.17;1.20;;;16.70;62.80;;;;;;5063108;28;20406;-82
2023/08/24 08:05:19;;;;;;;5.85;1.73;;;16.60;63.80;;;;;;5062491;28;20023;-79
2023/08/24 08:07:51;;;;;;;5.35;1.92;;;16.60;63.40;;;;;;5061853;28;20103;-79
2023/08/24 08:10:20;;;;;;;3.83;1.35;;;16.60;63.10;;;;;;5061262;28;20071;-78
2023/08/24 08:12:48;;;;;;;6.50;2.20;;;16.50;63.50;;;;;;5043704;28;20027;-78
2023/08/24 08:15:16;;;;;;;5.00;2.53;;;16.40;64.30;;;;;;5062401;28;20362;-82
2023/08/24 08:17:43;;;;;;;3.55;2.10;;;16.40;64.00;;;;;;5061708;28;20055;-81
2023/08/24 08:20:11;;;;;;;5.30;2.38;;;16.40;65.00;;;;;;5058237;28;20075;-82
2023/08/24 08:22:39;;;;;;;5.05;2.70;;;16.30;64.60;;;;;;5061769;28;20017;-82
2023/08/24 08:25:12;;;;;;;4.38;2.20;;;16.30;64.70;;;;;;5063822;28;20020;-83
2023/08/24 08:27:39;;;;;;;6.55;2.50;;;16.20;65.80;;;;;;5060026;28;20094;-83
2023/08/24 08:30:07;;;;;;;7.32;2.45;;;16.20;65.90;;;;;;5053347;28;20020;-83
2023/08/24 08:32:34;;;;;;;4.78;2.42;;;16.20;66.20;;;;;;5053752;28;20494;-83
2023/08/24 08:35:04;;;;;;;4.65;2.38;;;16.20;66.30;;;;;;5061092;28;20376;-83
2023/08/24 08:37:34;;;;;;;4.65;2.80;;;16.10;66.20;;;;;;5055469;28;20033;-84
2023/08/24 08:40:03;;;;;;;6.70;2.70;;;16.10;66.40;;;;;;5055132;28;20027;-82
2023/08/24 08:42:33;;;;;;;4.95;2.30;;;16.10;66.40;;;;;;5055930;28;20392;-83
2023/08/24 08:45:02;;;;;;;4.78;2.60;;;16.10;66.70;;;;;;5049614;28;20056;-84
2023/08/24 08:47:30;;;;;;;6.75;2.60;;;16.10;66.90;;;;;;5051770;28;20033;-78
2023/08/24 08:49:58;;;;;;;4.68;2.20;;;16.00;67.10;;;;;;5051523;28;20020;-79
2023/08/24 08:52:27;;;;;;;8.27;2.35;;;16.00;67.20;;;;;;5052522;28;20052;-77
2023/08/24 08:54:54;;;;;;;7.47;2.25;;;15.90;67.30;;;;;;5052795;28;20059;-77
2023/08/24 08:57:25;;;;;;;5.70;1.77;;;15.90;67.30;;;;;;5052822;28;20025;-77
2023/08/24 08:59:53;;;;;;;4.78;2.30;;;15.90;67.30;;;;;;5052809;28;20028;-81
2023/08/24 09:02:22;;;;;;;8.77;2.47;;;15.90;67.40;;;;;;5052872;28;20024;-82
2023/08/24 09:04:52;;;;;;;6.80;2.33;;;15.80;67.30;;;;;;5052444;28;20057;-78
2023/08/24 09:07:25;;;;;;;6.65;2.80;;;15.80;67.20;;;;;;5052882;28;20372;-82
2023/08/24 09:09:53;;;;;;;10.38;3.25;;;15.70;67.90;;;;;;5052683;28;20029;-77
2023/08/24 09:12:20;;;;;;;7.13;2.80;;;15.70;67.90;;;;;;5052686;28;20025;-79
2023/08/24 09:14:48;;;;;;;5.75;2.40;;;15.70;68.50;;;;;;5052502;28;20029;-81
2023/08/24 09:17:24;;;;;;;6.38;2.88;;;15.70;68.50;;;;;;5052167;28;20451;-80
2023/08/24 09:19:54;;;;;;;;;;;15.70;68.80;;;;;;5053134;28;20439;-82
2023/08/24 09:22:21;;;;;;;6.32;3.00;;;15.60;68.80;;;;;;5052567;28;19909;-80
2023/08/24 09:24:50;;;;;;;7.20;2.72;;;15.60;68.90;;;;;;5052430;28;20078;-80
2023/08/24 09:27:20;;;;;;;5.60;3.05;;;15.60;69.30;;;;;;5052618;28;20017;-80
2023/08/24 09:29:54;;;;;;;6.25;2.70;;;15.60;69.20;;;;;;5052861;28;20032;-81
2023/08/24 09:32:34;;;;;;;8.23;3.45;;;15.50;69.20;;;;;;5052358;28;20025;-77
2023/08/24 09:35:05;;;;;;;8.60;3.80;;;15.40;69.20;;;;;;5052475;28;20108;-80
2023/08/24 09:37:35;;;;;;;11.15;4.90;;;15.50;69.60;;;;;;5052167;28;20087;-82
2023/08/24 09:40:08;;;;;;;8.90;4.20;;;15.50;70.20;;;;;;5052187;28;20071;-76
2023/08/24 09:42:44;;;;;;;10.40;4.03;;;15.40;70.00;;;;;;5052684;28;20052;-80
2023/08/24 09:45:15;;;;;;;10.45;4.32;;;15.40;70.00;;;;;;5052711;28;20029;-82
2023/08/24 09:47:52;;;;;;;10.07;3.90;;;15.40;70.30;;;;;;5051809;28;20044;-80
2023/08/24 09:50:23;;;;;;;10.00;4.75;;;15.30;70.40;;;;;;5052145;28;20037;-83
2023/08/24 09:52:57;;;;;;;11.82;5.10;;;15.30;70.60;;;;;;5051916;28;20021;-81
2023/08/24 09:55:31;;;;;;;8.98;4.30;;;15.40;71.00;;;;;;5053959;28;20036;-81
2023/08/24 09:58:01;;;;;;;9.18;4.20;;;15.30;70.60;;;;;;5051219;28;20113;-77
2023/08/24 10:00:38;;;;;;;8.43;3.88;;;15.30;70.80;;;;;;5052075;28;20033;-81
2023/08/24 10:03:06;;;;;;;7.75;4.18;;;15.30;70.60;;;;;;5052040;28;20459;-81
2023/08/24 10:05:34;;;;;;;5.88;3.25;;;15.30;71.10;;;;;;5054474;28;20128;-80
2023/08/24 10:08:03;;;;;;;9.40;3.78;;;15.20;70.70;;;;;;5056024;28;20059;-83
2023/08/24 10:10:32;;;;;;;7.03;3.42;;;15.20;71.10;;;;;;5055330;28;20025;-83
2023/08/24 10:13:11;;;;;;;8.60;3.63;;;15.20;70.70;;;;;;5055133;28;20083;-75
2023/08/24 10:15:46;;;;;;;8.68;3.20;;;15.20;70.50;;;;;;5055284;28;20032;-76
2023/08/24 10:18:18;;;;;;;8.93;3.17;;;15.20;70.90;;;;;;5055246;28;20048;-80
2023/08/24 10:20:47;;;;;;;10.25;2.95;;;15.20;70.80;;;;;;5054987;28;20024;-79
2023/08/24 10:23:16;;;;;;;7.70;2.50;;;15.20;70.90;;;;;;5055488;28;20027;-82
2023/08/24 10:25:44;;;;;;;6.82;2.50;;;15.20;71.40;;;;;;5055539;28;20025;-77
2023/08/24 10:28:13;;;;;;;5.75;2.50;;;15.20;70.90;;;;;;5055373;28;20032;-78
2023/08/24 10:30:44;;;;;;;5.53;2.47;;;15.20;70.60;;;;;;5055182;28;20049;-79
2023/08/24 10:33:13;;;;;;;5.50;2.35;;;15.20;70.80;;;;;;5055305;28;20021;-78
2023/08/24 10:35:41;;;;;;;6.78;2.42;;;15.10;71.10;;;;;;5055174;28;20064;-77
2023/08/24 10:38:09;;;;;;;7.60;2.80;;;15.10;70.90;;;;;;5055274;28;20044;-82
2023/08/24 10:40:44;;;;;;;6.28;2.58;;;15.00;71.30;;;;;;5053791;28;20017;-76
2023/08/24 10:43:12;;;;;;;5.18;2.65;;;15.10;71.70;;;;;;5055226;28;20020;-76
2023/08/24 10:46:00;;;;;;;4.57;2.83;;;15.00;71.20;;;;;;5054943;28;20025;-76
2023/08/24 10:48:29;;;;;;;7.50;3.15;;;15.00;71.60;;;;;;5054997;28;20025;-77
2023/08/24 10:51:26;;;;;;;6.50;2.88;;;15.00;71.10;;;;;;5054355;28;20025;-77
2023/08/24 10:53:54;;;;;;;7.78;3.22;;;14.90;71.80;;;;;;5055042;28;20124;-76
2023/08/24 10:56:25;;;;;;;7.70;3.55;;;14.90;71.80;;;;;;5053747;28;20029;-76
2023/08/24 10:59:13;;;;;;;6.20;3.17;;;14.90;71.60;;;;;;5054683;28;20033;-77
2023/08/24 11:01:42;;;;;;;7.63;3.47;;;14.80;71.80;;;;;;5054760;28;20049;-78
2023/08/24 11:04:10;;;;;;;6.47;3.15;;;14.80;72.10;;;;;;5054303;28;20032;-76
2023/08/24 11:06:56;;;;;;;7.72;4.00;;;14.80;72.10;;;;;;5054505;28;20017;-77
2023/08/24 11:09:24;;;;;;;8.52;3.78;;;14.80;72.00;;;;;;5054791;28;20511;-81
2023/08/24 11:12:04;;;;;;;7.63;3.22;;;14.80;72.30;;;;;;5053723;28;20108;-81
2023/08/24 11:14:48;;;;;;;6.95;2.97;;;14.70;72.60;;;;;;5054738;28;20462;-77
2023/08/24 11:17:21;;;;;;;8.32;3.40;;;14.70;72.80;;;;;;5054270;28;20078;-77
2023/08/24 11:19:59;;;;;;;8.40;3.17;;;14.70;72.50;;;;;;5054532;28;20036;-75
2023/08/24 11:22:27;;;;;;;5.35;2.97;;;14.70;72.50;;;;;;5054490;28;20025;-77
2023/08/24 11:24:54;;;;;;;6.70;3.20;;;14.70;73.00;;;;;;5054247;28;20108;-76
2023/08/24 11:27:22;;;;;;;7.05;3.45;;;14.70;72.90;;;;;;5053266;28;20028;-76
2023/08/24 11:30:00;;;;;;;7.82;3.00;;;14.70;73.00;;;;;;5054211;28;20085;-77
2023/08/24 11:32:27;;;;;;;9.93;2.97;;;14.70;73.40;;;;;;5054322;28;20049;-77
2023/08/24 11:34:56;;;;;;;6.65;2.95;;;14.70;73.50;;;;;;5053952;28;20368;-77
2023/08/24 11:37:23;;;;;;;7.65;3.10;;;14.70;73.80;;;;;;5054370;28;20049;-81
2023/08/24 11:39:50;;;;;;;6.68;3.00;;;14.70;73.70;;;;;;5053980;28;20043;-77
2023/08/24 11:42:18;;;;;;;5.07;2.63;;;14.70;73.30;;;;;;5054142;28;20025;-78
2023/08/24 11:44:49;;;;;;;7.13;3.22;;;14.70;73.60;;;;;;5053751;28;20021;-77
2023/08/24 11:47:19;;;;;;;7.72;2.78;;;14.60;73.70;;;;;;5053894;28;20029;-77
2023/08/24 11:49:47;;;;;;;7.57;3.15;;;14.60;73.90;;;;;;5053805;28;20028;-76
2023/08/24 11:52:15;;;;;;;7.70;3.67;;;14.50;73.70;;;;;;5053930;28;20021;-76
2023/08/24 11:54:44;;;;;;;9.32;3.50;;;14.50;73.70;;;;;;5052548;28;20033;-77
2023/08/24 11:57:11;;;;;;;9.52;3.72;;;14.50;74.10;;;;;;5053855;28;20017;-78
2023/08/24 11:59:41;;;;;;;8.35;3.40;;;14.50;74.40;;;;;;5053695;28;20029;-77
2023/08/24 12:02:11;;;;;;;7.78;3.03;;;14.50;74.40;;;;;;5053668;28;20029;-75
2023/08/24 12:04:44;;;;;;;9.70;3.92;;;14.40;74.60;;;;;;5052999;28;20039;-77
2023/08/24 12:07:12;;;;;;;7.70;3.42;;;14.40;74.60;;;;;;5051406;28;20075;-76
2023/08/24 12:09:43;;;;;;;6.53;3.33;;;14.40;74.30;;;;;;5053679;28;20029;-75
2023/08/24 12:12:17;;;;;;;8.80;3.40;;;14.30;74.80;;;;;;5053808;28;20099;-76
2023/08/24 12:14:46;;;;;;;8.52;3.78;;;14.30;74.60;;;;;;5053349;28;20028;-76
2023/08/24 12:17:15;;;;;;;10.07;4.65;;;14.30;74.50;;;;;;5052975;28;20363;-76
2023/08/24 12:19:56;;;;;;;10.63;4.20;;;14.20;74.60;;;;;;5052124;28;20059;-75
2023/08/24 12:22:24;;;;;;;9.18;4.05;;;14.20;74.50;;;;;;5053484;28;20021;-80
2023/08/24 12:24:51;;;;;;;8.57;4.18;;;14.20;75.00;;;;;;5053119;28;20025;-77
2023/08/24 12:27:26;;;;;;;11.20;4.68;;;14.20;75.30;;;;;;5052934;28;20017;-77
2023/08/24 12:29:54;;;;;;;10.50;4.20;;;14.20;75.10;;;;;;5053174;28;20025;-78
2023/08/24 12:32:25;;;;;;;8.25;4.18;;;14.10;75.30;;;;;;5053304;28;20115;-77
2023/08/24 12:34:52;;;;;;;8.75;4.35;;;14.10;75.10;;;;;;5052916;28;20032;-79
2023/08/24 12:37:19;;;;;;;8.32;4.20;;;14.10;75.30;;;;;;5052956;28;20017;-76
2023/08/24 12:39:48;;;;;;;9.18;3.55;;;14.00;75.70;;;;;;5053147;28;20052;-76
2023/08/24 12:42:15;;;;;;;9.60;3.95;;;14.00;75.80;;;;;;5052977;28;20488;-76
2023/08/24 12:44:43;;;;;;;9.25;3.58;;;14.10;75.80;;;;;;5052818;28;20032;-79
2023/08/24 12:47:10;;;;;;;6.85;2.63;;;14.20;76.10;;;;;;5052975;28;20109;-78
2023/08/24 12:49:38;;;;;;;7.15;2.55;;;14.30;75.50;;;;;;5052752;28;20036;-76
2023/08/24 12:52:05;;;;;;;7.97;2.67;;;14.40;75.60;;;;;;5052870;28;20029;-81
2023/08/24 12:54:33;;;;;;;8.65;2.78;;;14.50;74.90;;;;;;5052871;28;20444;-77
2023/08/24 12:57:00;;;;;;;4.10;2.15;;;14.60;74.60;;;;;;5052538;28;20544;-77